KONL

The O'neill Municipal-John L Baker Field Airport

O'neill, Nebraska, USA
METAR KONL 280115Z AUTO 15005KT 10SM CLR 29/17 A2981 RMK AO2 T02860169
Observed Flight Rules
May-28 @ 01:15 UTC (12 minutes ago) Visual Flight Rules
Wind Visibility Clouds
150° at 5 knots 10 miles
  • Clear skies
Temperatures Readings
Current 29°C / 84°F
Dewpoint 17°C / 63°F
Humidity 48%
Altimeter 29.81" Hg
Pressure 1009 hPa
Elevation 619
METAR KONL 280115Z AUTO 15005KT 10SM CLR 29/17 A2981 RMK AO2 T02860169
Observed Flight Rules
May-28 @ 01:15 UTC
(12 minutes ago)
VFR
Wind Visibility
150° at 5 knots 10 miles
Clouds
  • Clear skies
Temperature Dewpoint
29°C / 84°F 17°C / 63°F
Humidity Altimeter Pressure
48% 29.81" Hg 1009 hPa